Heisson, Washington
Current Conditions -  °F | °C
As of 6:53 PM on Friday 31 Oct 2014 (Local Time) from KVUO Reporting Station
Overcast Overcast  
Wind Chill: 52°   Ceiling: 5500
Heat Index: 52°   Visibility: 10mi
Dew Point: 49°   Wind: 0mph
Humidity: 89%   Direction: NA
Pressure: 29.86"   Gusts: NA
Location:  45.82°N, 122.49°W
Report Text: KVUO 010153Z AUTO 00000KT 10SM OVC055 11/09 A2986 RMK AO2 SLP110 T01110094
Loading
Personal Weather Stations






























Interactive Weather Map
Tropical Storm Tracking
New forecast layout! Learn more

10-Day Weather Forecast

Advertisements
Track Severe Weather on mobile